createdAt,value
2022-12-25T00:13:49.827Z,72.4
2022-12-25T00:28:01.161Z,73
2022-12-25T00:42:08.259Z,73
2022-12-25T00:56:19.741Z,75.5
2022-12-25T01:10:31.787Z,75.6
2022-12-25T01:24:41.628Z,75.7
2022-12-25T01:38:48.574Z,75.1
2022-12-25T01:53:01.165Z,73.4
2022-12-25T02:07:08.944Z,72.4
2022-12-25T02:21:20.735Z,72.7
2022-12-25T02:35:33.051Z,71.8
2022-12-25T02:49:38.956Z,74.2
2022-12-25T03:03:45.569Z,76.3
2022-12-25T03:17:56.181Z,79.1
2022-12-25T03:32:06.175Z,78.6
2022-12-25T03:46:18.758Z,77.4
2022-12-25T04:00:29.230Z,79.3
2022-12-25T04:14:38.530Z,81.1
2022-12-25T04:28:51.957Z,81.9
2022-12-25T04:43:00.500Z,83.9
2022-12-25T04:57:11.161Z,83.9
2022-12-25T05:11:18.279Z,83.8
2022-12-25T05:25:29.010Z,85.3
2022-12-25T05:39:40.035Z,88
2022-12-25T05:53:48.634Z,87.6
2022-12-25T06:07:59.600Z,90.7
2022-12-25T06:22:05.300Z,95.8
2022-12-25T06:36:12.283Z,97.9
2022-12-25T06:50:21.376Z,97.4
2022-12-25T07:04:30.734Z,98.8
2022-12-25T07:18:38.797Z,99.1
2022-12-25T07:32:50.085Z,95.1
2022-12-25T07:46:54.813Z,95.2
2022-12-25T08:01:05.839Z,91.7
2022-12-25T08:15:16.050Z,90
2022-12-25T08:29:28.120Z,93.4
2022-12-25T08:43:35.818Z,92.9
2022-12-25T08:57:48.618Z,93.8
2022-12-25T09:11:59.373Z,92.7
2022-12-25T09:26:09.105Z,94.3
2022-12-25T09:40:18.166Z,97.7
2022-12-25T09:54:29.805Z,99.2
2022-12-25T10:08:41.444Z,99
2022-12-25T10:22:47.712Z,101.9
2022-12-25T10:36:59.961Z,102.2
2022-12-25T10:51:11.282Z,102.2
2022-12-25T11:05:15.636Z,106.4
2022-12-25T11:19:24.411Z,106.6
2022-12-25T11:33:36.397Z,108
2022-12-25T11:47:45.338Z,108.5
2022-12-25T12:01:50.793Z,111.1
2022-12-25T12:16:01.563Z,110.9
2022-12-25T12:30:14.037Z,111.8
2022-12-25T12:44:25.945Z,112.4
2022-12-25T12:58:35.410Z,112.8
2022-12-25T13:12:40.594Z,114.2
2022-12-25T13:26:50.820Z,116.5
2022-12-25T13:41:02.664Z,117.7
2022-12-25T13:55:14.768Z,120.7
2022-12-25T14:09:25.501Z,121.3
2022-12-25T14:23:34.036Z,121.3
2022-12-25T14:37:45.522Z,121.6
2022-12-25T14:51:51.712Z,121.7
2022-12-25T15:06:03.666Z,121.4
2022-12-25T15:20:08.458Z,120.6
2022-12-25T15:34:17.904Z,121.1
2022-12-25T15:48:28.642Z,120.5
2022-12-25T16:02:38.657Z,120.3
2022-12-25T16:16:43.046Z,118.1
2022-12-25T16:30:55.891Z,118.9
2022-12-25T16:45:04.196Z,119.8
2022-12-25T16:59:17.017Z,119.3
2022-12-25T17:13:25.810Z,117.5
2022-12-25T17:27:36.723Z,117.9
2022-12-25T17:41:45.449Z,117.7
2022-12-25T17:55:54.535Z,116.6
2022-12-25T18:10:03.801Z,115.3
2022-12-25T18:24:15.149Z,114.6
2022-12-25T18:38:21.730Z,116.4
2022-12-25T18:52:46.807Z,115.7
2022-12-25T19:06:31.258Z,115.6
2022-12-25T19:20:42.208Z,117.8
2022-12-25T19:34:52.620Z,119.1
2022-12-25T19:49:05.168Z,117.8
2022-12-25T20:03:14.275Z,114.1
2022-12-25T20:17:23.976Z,113.6
2022-12-25T20:31:33.415Z,114
2022-12-25T20:45:40.990Z,112.7
2022-12-25T20:59:47.415Z,112.3
2022-12-25T21:13:57.834Z,111
2022-12-25T21:28:06.453Z,108.8
2022-12-25T21:42:15.770Z,108.6
2022-12-25T21:56:25.655Z,109
2022-12-25T22:10:35.454Z,107.7
2022-12-25T22:24:43.679Z,107.5
2022-12-25T22:38:48.332Z,107.4
2022-12-25T22:52:54.460Z,104.8
2022-12-25T23:07:05.918Z,105.2
2022-12-25T23:21:16.607Z,105.9
2022-12-25T23:35:23.414Z,104.1
2022-12-25T23:49:30.557Z,102.6
